sensor_id;sensor_type;location;lat;lon;timestamp;P1;durP1;ratioP1;P2;durP2;ratioP2
72319;SDS011;60269;52.502;16.732;2022-09-28T00:03:07;8.15;;;2.08;;
72319;SDS011;60269;52.502;16.732;2022-09-28T00:06:59;8.00;;;2.50;;
72319;SDS011;60269;52.502;16.732;2022-09-28T00:10:44;10.20;;;2.42;;
72319;SDS011;60269;52.502;16.732;2022-09-28T00:14:38;6.75;;;2.15;;
72319;SDS011;60269;52.502;16.732;2022-09-28T00:18:24;8.23;;;2.70;;
72319;SDS011;60269;52.502;16.732;2022-09-28T00:22:16;7.33;;;2.17;;
72319;SDS011;60269;52.502;16.732;2022-09-28T00:25:54;7.15;;;2.10;;
72319;SDS011;60269;52.502;16.732;2022-09-28T00:29:46;7.13;;;2.03;;
72319;SDS011;60269;52.502;16.732;2022-09-28T00:33:31;8.97;;;2.60;;
72319;SDS011;60269;52.502;16.732;2022-09-28T00:37:25;13.10;;;2.33;;
72319;SDS011;60269;52.502;16.732;2022-09-28T00:41:03;7.55;;;2.22;;
72319;SDS011;60269;52.502;16.732;2022-09-28T00:44:58;9.35;;;2.72;;
72319;SDS011;60269;52.502;16.732;2022-09-28T00:48:51;7.70;;;2.13;;
72319;SDS011;60269;52.502;16.732;2022-09-28T00:52:47;9.18;;;2.53;;
72319;SDS011;60269;52.502;16.732;2022-09-28T00:56:41;8.68;;;2.40;;
72319;SDS011;60269;52.502;16.732;2022-09-28T01:00:37;8.63;;;2.57;;
72319;SDS011;60269;52.502;16.732;2022-09-28T01:04:24;7.30;;;2.30;;
72319;SDS011;60269;52.502;16.732;2022-09-28T01:08:09;11.43;;;2.65;;
72319;SDS011;60269;52.502;16.732;2022-09-28T01:11:55;8.63;;;2.33;;
72319;SDS011;60269;52.502;16.732;2022-09-28T01:15:48;8.30;;;2.30;;
72319;SDS011;60269;52.502;16.732;2022-09-28T01:23:59;11.48;;;2.53;;
72319;SDS011;60269;52.502;16.732;2022-09-28T01:28:03;6.10;;;1.88;;
72319;SDS011;60269;52.502;16.732;2022-09-28T01:31:53;7.63;;;2.77;;
72319;SDS011;60269;52.502;16.732;2022-09-28T01:39:54;13.60;;;2.85;;
72319;SDS011;60269;52.502;16.732;2022-09-28T01:43:41;7.70;;;2.65;;
72319;SDS011;60269;52.502;16.732;2022-09-28T01:47:38;8.90;;;1.93;;
72319;SDS011;60269;52.502;16.732;2022-09-28T01:51:22;19.50;;;3.22;;
72319;SDS011;60269;52.502;16.732;2022-09-28T01:55:28;8.52;;;2.60;;
72319;SDS011;60269;52.502;16.732;2022-09-28T01:59:11;10.30;;;2.53;;
72319;SDS011;60269;52.502;16.732;2022-09-28T02:03:17;6.53;;;2.20;;
72319;SDS011;60269;52.502;16.732;2022-09-28T02:07:10;7.93;;;2.45;;
72319;SDS011;60269;52.502;16.732;2022-09-28T02:11:20;8.05;;;2.35;;
72319;SDS011;60269;52.502;16.732;2022-09-28T02:15:09;7.73;;;2.50;;
72319;SDS011;60269;52.502;16.732;2022-09-28T02:19:11;8.47;;;2.77;;
72319;SDS011;60269;52.502;16.732;2022-09-28T02:22:54;8.07;;;2.78;;
72319;SDS011;60269;52.502;16.732;2022-09-28T02:26:54;11.40;;;3.75;;
72319;SDS011;60269;52.502;16.732;2022-09-28T02:30:36;10.13;;;3.33;;
72319;SDS011;60269;52.502;16.732;2022-09-28T02:34:29;11.37;;;3.30;;
72319;SDS011;60269;52.502;16.732;2022-09-28T02:38:09;8.25;;;2.85;;
72319;SDS011;60269;52.502;16.732;2022-09-28T02:42:28;10.68;;;2.67;;
72319;SDS011;60269;52.502;16.732;2022-09-28T02:47:03;9.87;;;3.00;;
72319;SDS011;60269;52.502;16.732;2022-09-28T02:55:41;8.43;;;2.65;;
72319;SDS011;60269;52.502;16.732;2022-09-28T03:03:52;9.53;;;2.80;;
72319;SDS011;60269;52.502;16.732;2022-09-28T03:11:57;9.80;;;2.70;;
72319;SDS011;60269;52.502;16.732;2022-09-28T03:15:48;12.10;;;3.22;;
72319;SDS011;60269;52.502;16.732;2022-09-28T03:19:33;8.97;;;2.50;;
72319;SDS011;60269;52.502;16.732;2022-09-28T03:23:18;11.35;;;2.83;;
72319;SDS011;60269;52.502;16.732;2022-09-28T03:27:10;8.57;;;3.08;;
72319;SDS011;60269;52.502;16.732;2022-09-28T03:30:55;8.57;;;2.70;;
72319;SDS011;60269;52.502;16.732;2022-09-28T03:34:40;9.43;;;2.43;;
72319;SDS011;60269;52.502;16.732;2022-09-28T03:38:25;9.55;;;3.28;;
72319;SDS011;60269;52.502;16.732;2022-09-28T03:42:17;9.18;;;2.58;;
72319;SDS011;60269;52.502;16.732;2022-09-28T03:46:02;10.07;;;2.87;;
72319;SDS011;60269;52.502;16.732;2022-09-28T03:49:47;9.90;;;2.80;;
72319;SDS011;60269;52.502;16.732;2022-09-28T03:53:32;8.10;;;2.85;;
72319;SDS011;60269;52.502;16.732;2022-09-28T03:57:24;8.43;;;2.75;;
72319;SDS011;60269;52.502;16.732;2022-09-28T04:01:10;8.50;;;2.70;;
72319;SDS011;60269;52.502;16.732;2022-09-28T04:04:56;7.72;;;2.35;;
72319;SDS011;60269;52.502;16.732;2022-09-28T04:08:41;12.00;;;3.03;;
72319;SDS011;60269;52.502;16.732;2022-09-28T04:12:33;12.82;;;3.60;;
72319;SDS011;60269;52.502;16.732;2022-09-28T04:16:18;15.67;;;3.17;;
72319;SDS011;60269;52.502;16.732;2022-09-28T04:20:03;10.45;;;2.65;;
72319;SDS011;60269;52.502;16.732;2022-09-28T04:23:50;9.52;;;3.30;;
72319;SDS011;60269;52.502;16.732;2022-09-28T04:27:43;10.13;;;3.30;;
72319;SDS011;60269;52.502;16.732;2022-09-28T04:31:47;7.37;;;3.10;;
72319;SDS011;60269;52.502;16.732;2022-09-28T04:35:41;9.75;;;3.35;;
72319;SDS011;60269;52.502;16.732;2022-09-28T04:39:27;13.73;;;3.50;;
72319;SDS011;60269;52.502;16.732;2022-09-28T04:43:25;8.23;;;2.90;;
72319;SDS011;60269;52.502;16.732;2022-09-28T04:47:03;9.07;;;2.80;;
72319;SDS011;60269;52.502;16.732;2022-09-28T04:51:02;10.50;;;3.28;;
72319;SDS011;60269;52.502;16.732;2022-09-28T04:54:41;12.70;;;3.70;;
72319;SDS011;60269;52.502;16.732;2022-09-28T04:58:33;11.10;;;3.50;;
72319;SDS011;60269;52.502;16.732;2022-09-28T05:02:13;12.70;;;3.53;;
72319;SDS011;60269;52.502;16.732;2022-09-28T05:06:12;9.45;;;3.10;;
72319;SDS011;60269;52.502;16.732;2022-09-28T05:09:52;11.73;;;4.00;;
72319;SDS011;60269;52.502;16.732;2022-09-28T05:13:44;12.25;;;4.32;;
72319;SDS011;60269;52.502;16.732;2022-09-28T05:17:23;10.48;;;3.92;;
72319;SDS011;60269;52.502;16.732;2022-09-28T05:21:22;26.95;;;8.95;;
72319;SDS011;60269;52.502;16.732;2022-09-28T05:25:21;20.97;;;6.23;;
72319;SDS011;60269;52.502;16.732;2022-09-28T05:28:59;22.25;;;8.98;;
72319;SDS011;60269;52.502;16.732;2022-09-28T05:32:58;21.20;;;8.90;;
72319;SDS011;60269;52.502;16.732;2022-09-28T05:36:36;17.23;;;6.57;;
72319;SDS011;60269;52.502;16.732;2022-09-28T05:40:29;16.00;;;7.20;;
72319;SDS011;60269;52.502;16.732;2022-09-28T05:44:07;13.80;;;5.72;;
72319;SDS011;60269;52.502;16.732;2022-09-28T05:48:06;15.73;;;5.18;;
72319;SDS011;60269;52.502;16.732;2022-09-28T05:52:05;15.03;;;5.00;;
72319;SDS011;60269;52.502;16.732;2022-09-28T05:55:50;13.48;;;4.57;;
72319;SDS011;60269;52.502;16.732;2022-09-28T05:59:45;13.07;;;5.03;;
72319;SDS011;60269;52.502;16.732;2022-09-28T06:03:30;11.25;;;4.18;;
72319;SDS011;60269;52.502;16.732;2022-09-28T06:07:15;10.00;;;3.53;;
72319;SDS011;60269;52.502;16.732;2022-09-28T06:11:04;9.35;;;3.15;;
72319;SDS011;60269;52.502;16.732;2022-09-28T06:14:56;10.43;;;3.47;;
72319;SDS011;60269;52.502;16.732;2022-09-28T06:18:42;9.97;;;3.20;;
72319;SDS011;60269;52.502;16.732;2022-09-28T06:22:27;12.97;;;3.80;;
72319;SDS011;60269;52.502;16.732;2022-09-28T06:26:12;11.07;;;5.00;;
72319;SDS011;60269;52.502;16.732;2022-09-28T06:30:04;12.95;;;4.03;;
72319;SDS011;60269;52.502;16.732;2022-09-28T06:33:42;9.20;;;3.53;;
72319;SDS011;60269;52.502;16.732;2022-09-28T06:37:34;11.83;;;3.87;;
72319;SDS011;60269;52.502;16.732;2022-09-28T06:41:19;10.98;;;3.28;;
72319;SDS011;60269;52.502;16.732;2022-09-28T06:45:11;9.23;;;3.30;;
72319;SDS011;60269;52.502;16.732;2022-09-28T06:48:49;8.93;;;3.03;;
72319;SDS011;60269;52.502;16.732;2022-09-28T06:52:41;9.40;;;3.17;;
72319;SDS011;60269;52.502;16.732;2022-09-28T06:56:26;9.50;;;3.28;;
72319;SDS011;60269;52.502;16.732;2022-09-28T07:00:11;6.55;;;2.17;;
72319;SDS011;60269;52.502;16.732;2022-09-28T07:03:57;6.43;;;2.07;;
72319;SDS011;60269;52.502;16.732;2022-09-28T07:07:49;12.03;;;3.17;;
72319;SDS011;60269;52.502;16.732;2022-09-28T07:11:27;9.27;;;2.55;;
72319;SDS011;60269;52.502;16.732;2022-09-28T07:15:19;7.20;;;2.10;;
72319;SDS011;60269;52.502;16.732;2022-09-28T07:19:04;6.80;;;2.03;;
72319;SDS011;60269;52.502;16.732;2022-09-28T07:22:59;7.37;;;2.20;;
72319;SDS011;60269;52.502;16.732;2022-09-28T07:26:56;7.38;;;2.33;;
72319;SDS011;60269;52.502;16.732;2022-09-28T07:30:49;4.75;;;1.45;;
72319;SDS011;60269;52.502;16.732;2022-09-28T07:34:34;8.13;;;2.70;;
72319;SDS011;60269;52.502;16.732;2022-09-28T07:38:22;7.53;;;2.53;;
72319;SDS011;60269;52.502;16.732;2022-09-28T07:42:07;8.93;;;2.72;;
72319;SDS011;60269;52.502;16.732;2022-09-28T07:45:59;6.75;;;2.35;;
72319;SDS011;60269;52.502;16.732;2022-09-28T07:49:45;8.50;;;2.13;;
72319;SDS011;60269;52.502;16.732;2022-09-28T07:53:31;7.70;;;2.27;;
72319;SDS011;60269;52.502;16.732;2022-09-28T07:57:17;6.47;;;1.80;;
72319;SDS011;60269;52.502;16.732;2022-09-28T08:01:10;8.93;;;2.15;;
72319;SDS011;60269;52.502;16.732;2022-09-28T08:04:49;6.10;;;2.37;;
72319;SDS011;60269;52.502;16.732;2022-09-28T08:08:41;6.27;;;2.00;;
72319;SDS011;60269;52.502;16.732;2022-09-28T08:12:29;4.28;;;1.25;;
72319;SDS011;60269;52.502;16.732;2022-09-28T08:16:17;7.38;;;1.98;;
72319;SDS011;60269;52.502;16.732;2022-09-28T08:20:02;6.80;;;2.30;;
72319;SDS011;60269;52.502;16.732;2022-09-28T08:24:14;5.73;;;1.93;;
72319;SDS011;60269;52.502;16.732;2022-09-28T08:27:53;6.30;;;1.52;;
72319;SDS011;60269;52.502;16.732;2022-09-28T08:31:46;7.32;;;1.98;;
72319;SDS011;60269;52.502;16.732;2022-09-28T08:35:37;7.37;;;1.80;;
72319;SDS011;60269;52.502;16.732;2022-09-28T08:39:30;5.67;;;1.17;;
72319;SDS011;60269;52.502;16.732;2022-09-28T08:43:23;6.03;;;1.85;;
72319;SDS011;60269;52.502;16.732;2022-09-28T08:47:32;6.60;;;1.55;;
72319;SDS011;60269;52.502;16.732;2022-09-28T08:51:47;7.10;;;2.17;;
72319;SDS011;60269;52.502;16.732;2022-09-28T08:55:38;7.30;;;1.83;;
72319;SDS011;60269;52.502;16.732;2022-09-28T08:59:27;6.93;;;2.47;;
72319;SDS011;60269;52.502;16.732;2022-09-28T09:03:30;7.13;;;2.00;;
72319;SDS011;60269;52.502;16.732;2022-09-28T09:11:21;7.23;;;1.60;;
72319;SDS011;60269;52.502;16.732;2022-09-28T09:24:18;10.48;;;2.13;;
72319;SDS011;60269;52.502;16.732;2022-09-28T09:32:59;7.60;;;1.88;;
72319;SDS011;60269;52.502;16.732;2022-09-28T09:37:34;5.55;;;1.45;;
72319;SDS011;60269;52.502;16.732;2022-09-28T09:46:24;5.37;;;1.60;;
72319;SDS011;60269;52.502;16.732;2022-09-28T09:50:18;5.47;;;1.70;;
72319;SDS011;60269;52.502;16.732;2022-09-28T09:58:47;4.55;;;1.63;;
72319;SDS011;60269;52.502;16.732;2022-09-28T10:02:37;5.97;;;1.70;;
72319;SDS011;60269;52.502;16.732;2022-09-28T10:06:31;6.03;;;2.17;;
72319;SDS011;60269;52.502;16.732;2022-09-28T10:10:19;5.93;;;2.00;;
72319;SDS011;60269;52.502;16.732;2022-09-28T10:14:12;6.93;;;2.10;;
72319;SDS011;60269;52.502;16.732;2022-09-28T10:18:04;5.47;;;1.77;;
72319;SDS011;60269;52.502;16.732;2022-09-28T10:22:05;7.10;;;1.73;;
72319;SDS011;60269;52.502;16.732;2022-09-28T10:25:51;5.90;;;1.90;;
72319;SDS011;60269;52.502;16.732;2022-09-28T10:33:37;4.38;;;1.35;;
72319;SDS011;60269;52.502;16.732;2022-09-28T10:37:29;6.95;;;1.55;;
72319;SDS011;60269;52.502;16.732;2022-09-28T10:41:09;7.53;;;1.30;;
72319;SDS011;60269;52.502;16.732;2022-09-28T10:45:05;5.60;;;1.35;;
72319;SDS011;60269;52.502;16.732;2022-09-28T10:49:16;5.25;;;1.80;;
72319;SDS011;60269;52.502;16.732;2022-09-28T10:53:10;5.68;;;1.42;;
72319;SDS011;60269;52.502;16.732;2022-09-28T10:56:58;5.63;;;1.90;;
72319;SDS011;60269;52.502;16.732;2022-09-28T11:00:50;6.47;;;1.80;;
72319;SDS011;60269;52.502;16.732;2022-09-28T11:04:40;4.00;;;1.08;;
72319;SDS011;60269;52.502;16.732;2022-09-28T11:08:38;5.38;;;1.40;;
72319;SDS011;60269;52.502;16.732;2022-09-28T11:12:20;4.18;;;1.20;;
72319;SDS011;60269;52.502;16.732;2022-09-28T11:20:28;3.35;;;0.77;;
72319;SDS011;60269;52.502;16.732;2022-09-28T11:24:24;4.88;;;1.25;;
72319;SDS011;60269;52.502;16.732;2022-09-28T11:28:04;3.10;;;0.90;;
72319;SDS011;60269;52.502;16.732;2022-09-28T11:32:02;3.63;;;0.80;;
72319;SDS011;60269;52.502;16.732;2022-09-28T11:35:59;3.63;;;0.90;;
72319;SDS011;60269;52.502;16.732;2022-09-28T11:39:59;5.53;;;1.65;;
72319;SDS011;60269;52.502;16.732;2022-09-28T11:48:25;4.57;;;1.67;;
72319;SDS011;60269;52.502;16.732;2022-09-28T11:52:11;5.07;;;1.50;;
72319;SDS011;60269;52.502;16.732;2022-09-28T11:56:20;3.80;;;1.23;;
72319;SDS011;60269;52.502;16.732;2022-09-28T12:00:23;3.78;;;0.90;;
72319;SDS011;60269;52.502;16.732;2022-09-28T12:04:18;4.10;;;0.90;;
72319;SDS011;60269;52.502;16.732;2022-09-28T12:08:12;3.97;;;0.90;;
72319;SDS011;60269;52.502;16.732;2022-09-28T12:12:05;10.18;;;1.33;;
72319;SDS011;60269;52.502;16.732;2022-09-28T12:16:02;6.13;;;1.30;;
72319;SDS011;60269;52.502;16.732;2022-09-28T12:20:22;5.00;;;1.40;;
72319;SDS011;60269;52.502;16.732;2022-09-28T12:28:42;5.75;;;1.10;;
72319;SDS011;60269;52.502;16.732;2022-09-28T12:32:37;6.55;;;1.65;;
72319;SDS011;60269;52.502;16.732;2022-09-28T12:36:38;4.38;;;1.20;;
72319;SDS011;60269;52.502;16.732;2022-09-28T12:40:36;3.17;;;0.87;;
72319;SDS011;60269;52.502;16.732;2022-09-28T12:44:43;5.90;;;0.90;;
72319;SDS011;60269;52.502;16.732;2022-09-28T12:48:43;3.38;;;0.93;;
72319;SDS011;60269;52.502;16.732;2022-09-28T13:09:24;5.60;;;0.90;;
72319;SDS011;60269;52.502;16.732;2022-09-28T13:17:31;4.13;;;1.05;;
72319;SDS011;60269;52.502;16.732;2022-09-28T13:25:29;4.50;;;1.00;;
72319;SDS011;60269;52.502;16.732;2022-09-28T13:29:24;6.00;;;1.87;;
72319;SDS011;60269;52.502;16.732;2022-09-28T13:33:04;5.90;;;1.60;;
72319;SDS011;60269;52.502;16.732;2022-09-28T13:37:15;5.13;;;1.60;;
72319;SDS011;60269;52.502;16.732;2022-09-28T13:48:54;7.00;;;2.03;;
72319;SDS011;60269;52.502;16.732;2022-09-28T13:53:02;6.15;;;1.63;;
72319;SDS011;60269;52.502;16.732;2022-09-28T13:57:18;6.50;;;1.75;;
72319;SDS011;60269;52.502;16.732;2022-09-28T14:01:15;4.37;;;1.40;;
72319;SDS011;60269;52.502;16.732;2022-09-28T14:13:10;7.68;;;2.42;;
72319;SDS011;60269;52.502;16.732;2022-09-28T14:17:58;7.03;;;2.67;;
72319;SDS011;60269;52.502;16.732;2022-09-28T14:25:43;4.03;;;0.93;;
72319;SDS011;60269;52.502;16.732;2022-09-28T14:29:49;2.83;;;0.57;;
72319;SDS011;60269;52.502;16.732;2022-09-28T14:33:41;3.93;;;0.90;;
72319;SDS011;60269;52.502;16.732;2022-09-28T14:37:46;5.95;;;0.52;;
72319;SDS011;60269;52.502;16.732;2022-09-28T14:41:52;3.00;;;0.40;;
72319;SDS011;60269;52.502;16.732;2022-09-28T14:45:37;5.30;;;0.80;;
72319;SDS011;60269;52.502;16.732;2022-09-28T14:53:26;4.28;;;0.82;;
72319;SDS011;60269;52.502;16.732;2022-09-28T14:57:08;7.20;;;0.68;;
72319;SDS011;60269;52.502;16.732;2022-09-28T15:01:15;8.33;;;1.33;;
72319;SDS011;60269;52.502;16.732;2022-09-28T15:09:23;3.88;;;0.90;;
72319;SDS011;60269;52.502;16.732;2022-09-28T15:13:33;5.63;;;1.00;;
72319;SDS011;60269;52.502;16.732;2022-09-28T15:17:12;5.63;;;1.10;;
72319;SDS011;60269;52.502;16.732;2022-09-28T15:21:22;6.63;;;1.05;;
72319;SDS011;60269;52.502;16.732;2022-09-28T15:25:11;6.38;;;1.30;;
72319;SDS011;60269;52.502;16.732;2022-09-28T15:29:13;4.67;;;1.10;;
72319;SDS011;60269;52.502;16.732;2022-09-28T15:32:55;5.90;;;1.02;;
72319;SDS011;60269;52.502;16.732;2022-09-28T15:37:13;4.68;;;0.90;;
72319;SDS011;60269;52.502;16.732;2022-09-28T15:41:15;5.53;;;1.40;;
72319;SDS011;60269;52.502;16.732;2022-09-28T15:45:39;10.90;;;2.27;;
72319;SDS011;60269;52.502;16.732;2022-09-28T15:49:23;14.82;;;5.20;;
72319;SDS011;60269;52.502;16.732;2022-09-28T15:53:12;8.80;;;2.72;;
72319;SDS011;60269;52.502;16.732;2022-09-28T15:57:26;10.17;;;2.37;;
72319;SDS011;60269;52.502;16.732;2022-09-28T16:01:26;15.07;;;4.63;;
72319;SDS011;60269;52.502;16.732;2022-09-28T16:05:33;7.35;;;1.85;;
72319;SDS011;60269;52.502;16.732;2022-09-28T16:09:29;5.82;;;1.25;;
72319;SDS011;60269;52.502;16.732;2022-09-28T16:13:24;5.80;;;1.20;;
72319;SDS011;60269;52.502;16.732;2022-09-28T16:17:03;6.43;;;1.63;;
72319;SDS011;60269;52.502;16.732;2022-09-28T16:21:24;6.65;;;1.33;;
72319;SDS011;60269;52.502;16.732;2022-09-28T16:25:03;3.22;;;0.68;;
72319;SDS011;60269;52.502;16.732;2022-09-28T16:28:55;4.75;;;0.70;;
72319;SDS011;60269;52.502;16.732;2022-09-28T16:32:34;4.50;;;1.00;;
72319;SDS011;60269;52.502;16.732;2022-09-28T16:36:40;5.53;;;1.33;;
72319;SDS011;60269;52.502;16.732;2022-09-28T16:40:23;6.13;;;1.88;;
72319;SDS011;60269;52.502;16.732;2022-09-28T16:44:20;5.60;;;1.10;;
72319;SDS011;60269;52.502;16.732;2022-09-28T16:48:01;4.67;;;0.83;;
72319;SDS011;60269;52.502;16.732;2022-09-28T16:52:01;5.32;;;1.20;;
72319;SDS011;60269;52.502;16.732;2022-09-28T16:56:02;11.52;;;1.00;;
72319;SDS011;60269;52.502;16.732;2022-09-28T16:59:49;6.30;;;1.10;;
72319;SDS011;60269;52.502;16.732;2022-09-28T17:03:42;5.20;;;1.03;;
72319;SDS011;60269;52.502;16.732;2022-09-28T17:07:31;4.65;;;0.93;;
72319;SDS011;60269;52.502;16.732;2022-09-28T17:11:17;8.15;;;3.15;;
72319;SDS011;60269;52.502;16.732;2022-09-28T17:15:04;7.80;;;3.30;;
72319;SDS011;60269;52.502;16.732;2022-09-28T17:18:59;7.13;;;2.67;;
72319;SDS011;60269;52.502;16.732;2022-09-28T17:22:45;6.63;;;2.17;;
72319;SDS011;60269;52.502;16.732;2022-09-28T17:26:30;8.40;;;1.85;;
72319;SDS011;60269;52.502;16.732;2022-09-28T17:30:17;5.93;;;1.60;;
72319;SDS011;60269;52.502;16.732;2022-09-28T17:34:09;6.17;;;1.67;;
72319;SDS011;60269;52.502;16.732;2022-09-28T17:37:49;6.50;;;1.45;;
72319;SDS011;60269;52.502;16.732;2022-09-28T17:41:40;7.18;;;1.90;;
72319;SDS011;60269;52.502;16.732;2022-09-28T17:45:26;6.83;;;1.87;;
72319;SDS011;60269;52.502;16.732;2022-09-28T17:49:22;8.87;;;2.43;;
72319;SDS011;60269;52.502;16.732;2022-09-28T17:53:01;7.15;;;2.13;;
72319;SDS011;60269;52.502;16.732;2022-09-28T17:56:53;7.32;;;2.03;;
72319;SDS011;60269;52.502;16.732;2022-09-28T18:00:38;7.53;;;2.67;;
72319;SDS011;60269;52.502;16.732;2022-09-28T18:04:23;7.53;;;2.20;;
72319;SDS011;60269;52.502;16.732;2022-09-28T18:08:29;8.00;;;2.78;;
72319;SDS011;60269;52.502;16.732;2022-09-28T18:12:21;8.73;;;2.88;;
72319;SDS011;60269;52.502;16.732;2022-09-28T18:16:09;8.80;;;2.70;;
72319;SDS011;60269;52.502;16.732;2022-09-28T18:20:00;6.97;;;2.30;;
72319;SDS011;60269;52.502;16.732;2022-09-28T18:23:39;8.27;;;2.88;;
72319;SDS011;60269;52.502;16.732;2022-09-28T18:27:30;18.05;;;7.97;;
72319;SDS011;60269;52.502;16.732;2022-09-28T18:31:18;14.37;;;6.33;;
72319;SDS011;60269;52.502;16.732;2022-09-28T18:35:04;12.73;;;5.77;;
72319;SDS011;60269;52.502;16.732;2022-09-28T18:38:54;11.13;;;5.05;;
72319;SDS011;60269;52.502;16.732;2022-09-28T18:42:45;7.90;;;3.30;;
72319;SDS011;60269;52.502;16.732;2022-09-28T18:46:33;11.00;;;4.80;;
72319;SDS011;60269;52.502;16.732;2022-09-28T18:50:17;14.07;;;6.77;;
72319;SDS011;60269;52.502;16.732;2022-09-28T18:54:03;10.70;;;4.80;;
72319;SDS011;60269;52.502;16.732;2022-09-28T18:57:54;36.40;;;16.70;;
72319;SDS011;60269;52.502;16.732;2022-09-28T19:01:40;20.27;;;8.60;;
72319;SDS011;60269;52.502;16.732;2022-09-28T19:05:31;17.10;;;7.63;;
72319;SDS011;60269;52.502;16.732;2022-09-28T19:09:11;12.43;;;5.90;;
72319;SDS011;60269;52.502;16.732;2022-09-28T19:13:09;11.60;;;5.03;;
72319;SDS011;60269;52.502;16.732;2022-09-28T19:16:48;9.90;;;3.47;;
72319;SDS011;60269;52.502;16.732;2022-09-28T19:20:39;10.88;;;4.07;;
72319;SDS011;60269;52.502;16.732;2022-09-28T19:24:18;9.60;;;3.90;;
72319;SDS011;60269;52.502;16.732;2022-09-28T19:28:16;8.35;;;3.55;;
72319;SDS011;60269;52.502;16.732;2022-09-28T19:31:55;9.83;;;2.80;;
72319;SDS011;60269;52.502;16.732;2022-09-28T19:35:53;13.27;;;4.95;;
72319;SDS011;60269;52.502;16.732;2022-09-28T19:39:36;32.65;;;17.63;;
72319;SDS011;60269;52.502;16.732;2022-09-28T19:43:35;18.23;;;8.60;;
72319;SDS011;60269;52.502;16.732;2022-09-28T19:47:14;16.27;;;6.80;;
72319;SDS011;60269;52.502;16.732;2022-09-28T19:51:05;15.38;;;7.47;;
72319;SDS011;60269;52.502;16.732;2022-09-28T19:54:46;10.85;;;5.28;;
72319;SDS011;60269;52.502;16.732;2022-09-28T19:58:46;8.20;;;2.90;;
72319;SDS011;60269;52.502;16.732;2022-09-28T20:02:25;8.57;;;2.90;;
72319;SDS011;60269;52.502;16.732;2022-09-28T20:06:16;12.77;;;4.10;;
72319;SDS011;60269;52.502;16.732;2022-09-28T20:09:55;12.85;;;6.07;;
72319;SDS011;60269;52.502;16.732;2022-09-28T20:13:53;13.37;;;6.47;;
72319;SDS011;60269;52.502;16.732;2022-09-28T20:17:32;17.17;;;6.87;;
72319;SDS011;60269;52.502;16.732;2022-09-28T20:21:26;14.05;;;6.35;;
72319;SDS011;60269;52.502;16.732;2022-09-28T20:25:05;17.70;;;6.70;;
72319;SDS011;60269;52.502;16.732;2022-09-28T20:29:04;16.37;;;7.37;;
72319;SDS011;60269;52.502;16.732;2022-09-28T20:33:05;14.93;;;5.73;;
72319;SDS011;60269;52.502;16.732;2022-09-28T20:37:12;15.80;;;6.70;;
72319;SDS011;60269;52.502;16.732;2022-09-28T20:40:57;18.48;;;7.18;;
72319;SDS011;60269;52.502;16.732;2022-09-28T20:44:56;15.77;;;6.90;;
72319;SDS011;60269;52.502;16.732;2022-09-28T20:48:35;15.73;;;7.00;;
72319;SDS011;60269;52.502;16.732;2022-09-28T20:52:27;15.02;;;6.10;;
72319;SDS011;60269;52.502;16.732;2022-09-28T20:56:07;13.98;;;5.70;;
72319;SDS011;60269;52.502;16.732;2022-09-28T21:00:09;12.97;;;4.93;;
72319;SDS011;60269;52.502;16.732;2022-09-28T21:03:51;13.67;;;5.40;;
72319;SDS011;60269;52.502;16.732;2022-09-28T21:07:45;14.18;;;5.63;;
72319;SDS011;60269;52.502;16.732;2022-09-28T21:11:25;12.88;;;4.82;;
72319;SDS011;60269;52.502;16.732;2022-09-28T21:15:25;13.83;;;5.27;;
72319;SDS011;60269;52.502;16.732;2022-09-28T21:19:04;12.57;;;4.70;;
72319;SDS011;60269;52.502;16.732;2022-09-28T21:22:55;13.40;;;5.45;;
72319;SDS011;60269;52.502;16.732;2022-09-28T21:26:34;10.90;;;4.88;;
72319;SDS011;60269;52.502;16.732;2022-09-28T21:30:33;14.33;;;5.23;;
72319;SDS011;60269;52.502;16.732;2022-09-28T21:34:16;11.70;;;4.87;;
72319;SDS011;60269;52.502;16.732;2022-09-28T21:38:08;14.88;;;4.93;;
72319;SDS011;60269;52.502;16.732;2022-09-28T21:41:47;14.82;;;6.05;;
72319;SDS011;60269;52.502;16.732;2022-09-28T21:45:47;17.40;;;6.17;;
72319;SDS011;60269;52.502;16.732;2022-09-28T21:49:50;15.97;;;7.03;;
72319;SDS011;60269;52.502;16.732;2022-09-28T21:53:49;15.57;;;6.95;;
72319;SDS011;60269;52.502;16.732;2022-09-28T21:57:28;14.05;;;6.47;;
72319;SDS011;60269;52.502;16.732;2022-09-28T22:01:26;14.00;;;5.40;;
72319;SDS011;60269;52.502;16.732;2022-09-28T22:05:13;13.57;;;4.57;;
72319;SDS011;60269;52.502;16.732;2022-09-28T22:09:04;13.98;;;5.55;;
72319;SDS011;60269;52.502;16.732;2022-09-28T22:12:43;11.60;;;4.78;;
72319;SDS011;60269;52.502;16.732;2022-09-28T22:16:41;12.60;;;4.23;;
72319;SDS011;60269;52.502;16.732;2022-09-28T22:20:20;12.80;;;4.90;;
72319;SDS011;60269;52.502;16.732;2022-09-28T22:24:11;13.77;;;5.18;;
72319;SDS011;60269;52.502;16.732;2022-09-28T22:27:50;16.40;;;4.32;;
72319;SDS011;60269;52.502;16.732;2022-09-28T22:31:49;13.00;;;4.90;;
72319;SDS011;60269;52.502;16.732;2022-09-28T22:35:28;10.97;;;4.43;;
72319;SDS011;60269;52.502;16.732;2022-09-28T22:39:19;14.15;;;4.78;;
72319;SDS011;60269;52.502;16.732;2022-09-28T22:42:58;11.85;;;4.38;;
72319;SDS011;60269;52.502;16.732;2022-09-28T22:46:56;12.93;;;4.50;;
72319;SDS011;60269;52.502;16.732;2022-09-28T22:50:58;13.53;;;4.33;;
72319;SDS011;60269;52.502;16.732;2022-09-28T22:55:05;13.73;;;4.47;;
72319;SDS011;60269;52.502;16.732;2022-09-28T22:59:04;9.73;;;3.50;;
72319;SDS011;60269;52.502;16.732;2022-09-28T23:02:43;11.63;;;4.43;;
72319;SDS011;60269;52.502;16.732;2022-09-28T23:06:41;9.80;;;3.50;;
72319;SDS011;60269;52.502;16.732;2022-09-28T23:10:40;10.80;;;4.47;;
72319;SDS011;60269;52.502;16.732;2022-09-28T23:14:19;13.85;;;4.60;;
72319;SDS011;60269;52.502;16.732;2022-09-28T23:18:17;13.47;;;4.93;;
72319;SDS011;60269;52.502;16.732;2022-09-28T23:21:56;11.97;;;3.87;;
72319;SDS011;60269;52.502;16.732;2022-09-28T23:25:47;11.32;;;4.45;;
72319;SDS011;60269;52.502;16.732;2022-09-28T23:29:26;11.25;;;4.78;;
72319;SDS011;60269;52.502;16.732;2022-09-28T23:33:24;13.40;;;4.60;;
72319;SDS011;60269;52.502;16.732;2022-09-28T23:37:03;13.83;;;4.27;;
72319;SDS011;60269;52.502;16.732;2022-09-28T23:40:54;12.88;;;4.28;;
72319;SDS011;60269;52.502;16.732;2022-09-28T23:44:33;12.68;;;4.70;;
72319;SDS011;60269;52.502;16.732;2022-09-28T23:48:32;14.50;;;4.00;;
72319;SDS011;60269;52.502;16.732;2022-09-28T23:52:10;13.47;;;4.80;;
72319;SDS011;60269;52.502;16.732;2022-09-28T23:56:01;11.63;;;4.55;;
72319;SDS011;60269;52.502;16.732;2022-09-28T23:59:40;14.20;;;4.72;;
